Time;durP1;ratioP1;P1;durP2;ratioP2;P2;SDS_P1;SDS_P2;PMS_P1;PMS_P2;Temp;Humidity;BMP_temperature;BMP_pressure;BME280_temperature;BME280_humidity;BME280_pressure;Samples;Min_cycle;Max_cycle;Signal;HPM_P1;HPM_P2
2023/05/27 00:01:52;;;;;;;4.30;3.42;;;;;;;;;;5013539;28;20018;-77
2023/05/27 00:04:18;;;;;;;6.10;3.00;;;;;;;;;;5019935;28;20026;-78
2023/05/27 00:06:44;;;;;;;7.18;4.28;;;;;;;;;;5027816;28;20053;-78
2023/05/27 00:09:11;;;;;;;6.05;3.03;;;;;;;;;;5020965;28;20487;-78
2023/05/27 00:11:37;;;;;;;6.68;3.13;;;;;;;;;;5017312;28;20025;-78
2023/05/27 00:14:03;;;;;;;5.97;3.05;;;;;;;;;;5024862;28;20067;-78
2023/05/27 00:16:31;;;;;;;5.32;3.30;;;;;;;;;;5016416;28;20510;-79
2023/05/27 00:18:57;;;;;;;5.25;2.88;;;;;;;;;;5021440;28;20415;-78
2023/05/27 00:21:24;;;;;;;6.55;3.47;;;;;;;;;;5022402;28;20112;-79
2023/05/27 00:23:51;;;;;;;6.72;3.58;;;;;;;;;;5026846;28;20029;-78
2023/05/27 00:26:17;;;;;;;4.38;3.38;;;;;;;;;;5017463;28;20101;-77
2023/05/27 00:28:44;;;;;;;6.25;4.10;;;;;;;;;;5024630;28;20026;-78
2023/05/27 00:31:10;;;;;;;7.30;3.35;;;;;;;;;;5023637;28;20483;-78
2023/05/27 00:33:36;;;;;;;6.53;3.72;;;;;;;;;;5023769;28;20124;-78
2023/05/27 00:36:02;;;;;;;6.43;3.30;;;;;;;;;;5020272;28;20030;-78
2023/05/27 00:38:28;;;;;;;5.45;3.13;;;;;;;;;;5025037;28;20041;-79
2023/05/27 00:40:54;;;;;;;6.10;3.55;;;;;;;;;;5027228;28;20105;-77
2023/05/27 00:43:20;;;;;;;7.18;3.55;;;;;;;;;;5026901;28;20542;-78
2023/05/27 00:45:46;;;;;;;7.47;3.40;;;;;;;;;;5017707;28;20038;-78
2023/05/27 00:48:13;;;;;;;6.35;3.55;;;;;;;;;;5021526;28;21175;-78
2023/05/27 00:50:39;;;;;;;7.40;3.47;;;;;;;;;;5027918;28;20486;-78
2023/05/27 00:53:05;;;;;;;6.68;3.42;;;;;;;;;;5024526;28;20021;-78
2023/05/27 00:55:32;;;;;;;7.90;3.38;;;;;;;;;;5029649;28;20386;-78
2023/05/27 00:57:58;;;;;;;5.07;3.08;;;;;;;;;;5024991;28;20029;-78
2023/05/27 01:00:24;;;;;;;6.25;3.22;;;;;;;;;;5029036;28;20487;-79
2023/05/27 01:02:51;;;;;;;7.15;3.47;;;;;;;;;;5020855;28;20117;-78
2023/05/27 01:05:17;;;;;;;8.30;3.40;;;;;;;;;;5003702;28;20126;-78
2023/05/27 01:07:43;;;;;;;8.30;3.58;;;;;;;;;;5006885;28;20466;-78
2023/05/27 01:10:28;;;;;;;6.90;4.05;;;;;;;;;;5027439;28;20119;-78
2023/05/27 01:13:01;;;;;;;5.20;3.45;;;;;;;;;;5025090;28;20132;-77
2023/05/27 01:15:28;;;;;;;7.10;3.63;;;;;;;;;;5020980;28;20033;-77
2023/05/27 01:17:56;;;;;;;8.50;4.00;;;;;;;;;;5020160;28;20053;-78
2023/05/27 01:20:22;;;;;;;9.27;3.97;;;;;;;;;;5026692;28;20022;-78
2023/05/27 01:22:52;;;;;;;5.75;3.30;;;;;;;;;;5027581;28;20041;-78
2023/05/27 01:25:21;;;;;;;4.60;3.22;;;;;;;;;;5021001;28;20037;-78
2023/05/27 01:27:48;;;;;;;7.20;3.20;;;;;;;;;;5016678;28;20109;-79
2023/05/27 01:30:14;;;;;;;6.30;3.58;;;;;;;;;;5022378;28;20056;-78
2023/05/27 01:32:46;;;;;;;6.75;4.93;;;;;;;;;;5025867;28;20098;-78
2023/05/27 01:35:12;;;;;;;7.82;3.72;;;;;;;;;;5008091;28;20124;-78
2023/05/27 01:37:41;;;;;;;7.47;3.55;;;;;;;;;;5022073;28;20096;-79
2023/05/27 01:40:08;;;;;;;8.15;3.63;;;;;;;;;;5023383;28;20079;-77
2023/05/27 01:42:38;;;;;;;4.75;3.72;;;;;;;;;;5024748;28;20100;-78
2023/05/27 01:45:06;;;;;;;5.78;3.10;;;;;;;;;;5038017;28;20474;-78
2023/05/27 01:47:32;;;;;;;8.30;3.53;;;;;;;;;;5033084;28;20081;-78
2023/05/27 01:49:59;;;;;;;8.77;4.05;;;;;;;;;;5020489;28;20445;-77
2023/05/27 01:52:26;;;;;;;7.43;3.67;;;;;;;;;;5030531;28;20124;-78
2023/05/27 01:54:52;;;;;;;4.72;3.47;;;;;;;;;;5032761;28;20589;-77
2023/05/27 01:57:18;;;;;;;4.88;3.70;;;;;;;;;;5025946;28;20120;-77
2023/05/27 01:59:44;;;;;;;7.93;3.40;;;;;;;;;;5032161;28;20044;-77
2023/05/27 02:02:11;;;;;;;6.78;3.70;;;;;;;;;;5015923;28;20025;-77
2023/05/27 02:04:37;;;;;;;5.30;3.10;;;;;;;;;;5030436;28;20502;-78
2023/05/27 02:07:03;;;;;;;7.32;3.90;;;;;;;;;;5032594;28;20353;-77
2023/05/27 02:09:29;;;;;;;8.43;3.85;;;;;;;;;;5029604;28;20064;-77
2023/05/27 02:11:55;;;;;;;9.18;3.50;;;;;;;;;;5031700;28;20033;-78
2023/05/27 02:14:21;;;;;;;5.30;3.20;;;;;;;;;;5030568;28;20046;-78
2023/05/27 02:16:49;;;;;;;6.97;3.78;;;;;;;;;;5027825;28;20035;-74
2023/05/27 02:19:15;;;;;;;4.55;3.13;;;;;;;;;;5028211;28;20029;-77
2023/05/27 02:21:41;;;;;;;7.68;3.33;;;;;;;;;;5030134;28;20022;-78
2023/05/27 02:24:08;;;;;;;4.78;3.17;;;;;;;;;;5033108;28;20021;-78
2023/05/27 02:26:34;;;;;;;8.88;3.15;;;;;;;;;;5012495;28;20040;-77
2023/05/27 02:29:00;;;;;;;5.10;3.03;;;;;;;;;;5025242;28;20037;-79
2023/05/27 02:31:26;;;;;;;5.43;3.30;;;;;;;;;;5032535;28;20033;-78
2023/05/27 02:33:52;;;;;;;6.88;3.50;;;;;;;;;;5035097;28;20035;-78
2023/05/27 02:36:20;;;;;;;6.07;3.42;;;;;;;;;;5011978;28;20022;-78
2023/05/27 02:38:47;;;;;;;6.30;3.47;;;;;;;;;;5030789;28;20038;-77
2023/05/27 02:41:13;;;;;;;5.07;3.33;;;;;;;;;;5032513;28;20097;-78
2023/05/27 02:43:39;;;;;;;3.45;2.97;;;;;;;;;;5023871;28;20418;-76
2023/05/27 02:46:05;;;;;;;6.30;3.83;;;;;;;;;;5026400;28;20991;-78
2023/05/27 02:48:31;;;;;;;4.82;3.78;;;;;;;;;;5030247;28;20107;-78
2023/05/27 02:50:57;;;;;;;5.00;4.43;;;;;;;;;;5028489;28;20021;-77
2023/05/27 02:53:24;;;;;;;6.70;3.15;;;;;;;;;;5027609;28;20034;-78
2023/05/27 02:55:50;;;;;;;5.43;3.00;;;;;;;;;;5031259;28;20021;-77
2023/05/27 02:58:16;;;;;;;4.00;3.22;;;;;;;;;;5022121;28;20056;-78
2023/05/27 03:00:42;;;;;;;6.60;3.13;;;;;;;;;;5017722;28;20161;-79
2023/05/27 03:03:09;;;;;;;4.95;3.15;;;;;;;;;;5028825;28;20108;-72
2023/05/27 03:05:35;;;;;;;7.13;3.47;;;;;;;;;;5030029;28;20017;-77
2023/05/27 03:08:02;;;;;;;3.85;3.33;;;;;;;;;;5027628;28;20029;-78
2023/05/27 03:10:29;;;;;;;3.83;3.00;;;;;;;;;;5030324;28;20033;-77
2023/05/27 03:12:55;;;;;;;5.45;3.15;;;;;;;;;;5028445;28;20132;-77
2023/05/27 03:15:24;;;;;;;6.53;3.10;;;;;;;;;;5028455;28;20057;-78
2023/05/27 03:17:50;;;;;;;5.13;2.30;;;;;;;;;;5023294;28;20197;-77
2023/05/27 03:20:18;;;;;;;5.47;3.33;;;;;;;;;;5022503;28;20033;-77
2023/05/27 03:22:45;;;;;;;4.88;2.72;;;;;;;;;;5030417;28;20017;-79
2023/05/27 03:25:11;;;;;;;5.18;2.97;;;;;;;;;;5025831;28;20022;-78
2023/05/27 03:27:37;;;;;;;4.63;2.97;;;;;;;;;;5028181;28;20052;-79
2023/05/27 03:30:04;;;;;;;4.80;2.90;;;;;;;;;;5027298;28;20034;-77
2023/05/27 03:32:31;;;;;;;6.50;3.10;;;;;;;;;;5026781;28;20033;-78
2023/05/27 03:34:57;;;;;;;9.70;3.50;;;;;;;;;;5030282;28;20064;-78
2023/05/27 03:37:23;;;;;;;4.72;3.10;;;;;;;;;;5025437;28;20068;-77
2023/05/27 03:39:49;;;;;;;5.15;2.92;;;;;;;;;;5028358;28;20391;-77
2023/05/27 03:42:15;;;;;;;5.18;3.05;;;;;;;;;;5026571;28;20026;-77
2023/05/27 03:44:41;;;;;;;4.35;2.92;;;;;;;;;;5031970;28;20033;-78
2023/05/27 03:47:07;;;;;;;5.10;2.90;;;;;;;;;;5022481;28;20521;-77
2023/05/27 03:49:33;;;;;;;4.28;3.15;;;;;;;;;;5029729;28;20035;-78
2023/05/27 03:51:59;;;;;;;6.32;3.28;;;;;;;;;;5028439;28;20076;-77
2023/05/27 03:54:26;;;;;;;4.18;3.03;;;;;;;;;;5031585;28;20029;-78
2023/05/27 03:56:52;;;;;;;4.38;2.83;;;;;;;;;;5022848;28;20032;-77
2023/05/27 03:59:18;;;;;;;4.68;3.30;;;;;;;;;;5026842;28;20034;-78
2023/05/27 04:01:45;;;;;;;8.73;3.13;;;;;;;;;;5027311;28;20033;-78
2023/05/27 04:04:11;;;;;;;4.70;2.90;;;;;;;;;;5030452;28;20414;-78
2023/05/27 04:06:37;;;;;;;7.18;3.33;;;;;;;;;;5021441;28;20056;-78
2023/05/27 04:09:03;;;;;;;4.75;3.00;;;;;;;;;;5026303;28;20049;-77
2023/05/27 04:11:30;;;;;;;4.90;3.38;;;;;;;;;;5026351;28;20036;-78
2023/05/27 04:13:56;;;;;;;3.80;2.83;;;;;;;;;;5017180;28;20029;-77
2023/05/27 04:16:24;;;;;;;5.10;3.05;;;;;;;;;;5008337;28;20406;-77
2023/05/27 04:18:51;;;;;;;5.07;2.80;;;;;;;;;;5023380;28;20065;-77
2023/05/27 04:21:17;;;;;;;7.95;3.78;;;;;;;;;;5025788;28;20025;-78
2023/05/27 04:23:44;;;;;;;4.55;3.08;;;;;;;;;;5023301;28;20104;-77
2023/05/27 04:26:10;;;;;;;4.60;3.38;;;;;;;;;;5020300;28;20017;-77
2023/05/27 04:28:38;;;;;;;6.82;3.03;;;;;;;;;;5026632;28;20040;-78
2023/05/27 04:31:04;;;;;;;6.18;2.95;;;;;;;;;;5026968;28;20505;-78
2023/05/27 04:33:31;;;;;;;6.13;3.17;;;;;;;;;;5019645;28;20442;-79
2023/05/27 04:35:57;;;;;;;5.30;3.20;;;;;;;;;;5030114;28;20065;-78
2023/05/27 04:38:24;;;;;;;4.97;3.47;;;;;;;;;;5026166;28;20380;-78
2023/05/27 04:40:54;;;;;;;5.30;3.20;;;;;;;;;;5024569;28;20025;-78
2023/05/27 04:43:20;;;;;;;6.68;3.50;;;;;;;;;;5017709;28;20061;-78
2023/05/27 04:45:47;;;;;;;4.97;3.70;;;;;;;;;;5023719;28;20037;-78
2023/05/27 04:48:14;;;;;;;5.63;3.30;;;;;;;;;;5006306;28;20026;-77
2023/05/27 04:50:43;;;;;;;8.90;4.03;;;;;;;;;;5006743;28;20667;-78
2023/05/27 04:53:09;;;;;;;5.38;3.28;;;;;;;;;;5026027;28;20034;-77
2023/05/27 04:55:36;;;;;;;5.35;3.20;;;;;;;;;;5021373;28;20104;-77
2023/05/27 04:58:03;;;;;;;5.88;3.22;;;;;;;;;;5024779;28;20040;-77
2023/05/27 05:00:38;;;;;;;5.20;3.40;;;;;;;;;;5024933;28;20075;-77
2023/05/27 05:03:05;;;;;;;5.65;4.20;;;;;;;;;;5028800;28;20432;-77
2023/05/27 05:05:31;;;;;;;6.25;3.50;;;;;;;;;;5030968;28;20031;-78
2023/05/27 05:07:58;;;;;;;9.00;4.43;;;;;;;;;;5027625;28;20043;-77
2023/05/27 05:10:24;;;;;;;6.25;3.47;;;;;;;;;;5022421;28;20053;-78
2023/05/27 05:12:50;;;;;;;4.78;3.45;;;;;;;;;;5009491;28;20470;-77
2023/05/27 05:15:17;;;;;;;5.45;3.80;;;;;;;;;;5024847;28;20033;-77
2023/05/27 05:17:43;;;;;;;7.03;3.47;;;;;;;;;;5025726;28;20037;-78
2023/05/27 05:20:10;;;;;;;4.10;3.40;;;;;;;;;;5026218;28;20030;-78
2023/05/27 05:22:36;;;;;;;7.00;3.40;;;;;;;;;;5028654;28;20030;-78
2023/05/27 05:25:03;;;;;;;4.68;3.25;;;;;;;;;;5027045;28;20025;-77
2023/05/27 05:27:29;;;;;;;5.10;3.53;;;;;;;;;;5029212;28;20026;-78
2023/05/27 05:29:56;;;;;;;7.32;3.83;;;;;;;;;;5023672;28;20475;-77
2023/05/27 05:32:22;;;;;;;5.80;3.35;;;;;;;;;;5023369;28;20551;-79
2023/05/27 05:34:48;;;;;;;5.80;3.30;;;;;;;;;;5006125;28;20060;-77
2023/05/27 05:37:15;;;;;;;5.60;3.00;;;;;;;;;;5024297;28;20505;-77
2023/05/27 05:39:44;;;;;;;5.70;3.33;;;;;;;;;;5021014;28;20037;-77
2023/05/27 05:42:10;;;;;;;5.82;3.60;;;;;;;;;;5025071;28;20026;-77
2023/05/27 05:44:36;;;;;;;8.23;3.70;;;;;;;;;;5025140;28;20033;-77
2023/05/27 05:47:03;;;;;;;6.60;3.33;;;;;;;;;;5000177;28;20410;-78
2023/05/27 05:49:29;;;;;;;4.50;3.08;;;;;;;;;;5009180;28;20752;-77
2023/05/27 05:51:55;;;;;;;4.60;2.95;;;;;;;;;;5021503;28;20059;-78
2023/05/27 05:54:21;;;;;;;5.53;3.55;;;;;;;;;;5021060;28;20063;-77
2023/05/27 05:56:47;;;;;;;5.57;3.08;;;;;;;;;;5026385;28;20037;-77
2023/05/27 05:59:13;;;;;;;6.88;3.10;;;;;;;;;;5023852;28;20028;-77
2023/05/27 06:01:39;;;;;;;5.22;3.22;;;;;;;;;;5027797;28;20068;-77
2023/05/27 06:04:06;;;;;;;3.72;3.13;;;;;;;;;;5021070;28;20072;-77
2023/05/27 06:06:34;;;;;;;6.53;3.60;;;;;;;;;;5006447;28;20022;-78
2023/05/27 06:09:00;;;;;;;4.53;3.25;;;;;;;;;;5028683;28;20076;-78
2023/05/27 06:11:26;;;;;;;6.35;3.67;;;;;;;;;;5026012;28;20036;-78
2023/05/27 06:13:52;;;;;;;4.30;3.35;;;;;;;;;;5026491;28;20108;-77
2023/05/27 06:16:18;;;;;;;4.22;3.28;;;;;;;;;;5019648;28;20504;-77
2023/05/27 06:18:45;;;;;;;5.03;3.00;;;;;;;;;;5023759;28;20032;-77
2023/05/27 06:21:12;;;;;;;5.60;3.30;;;;;;;;;;5023728;28;20056;-78
2023/05/27 06:23:38;;;;;;;5.25;3.47;;;;;;;;;;5030346;28;20044;-77
2023/05/27 06:26:04;;;;;;;5.55;3.17;;;;;;;;;;5029605;28;20025;-78
2023/05/27 06:28:30;;;;;;;7.13;3.42;;;;;;;;;;5029920;28;20018;-78
2023/05/27 06:31:14;;;;;;;4.20;2.78;;;;;;;;;;5085096;27;20409;-77
2023/05/27 06:33:43;;;;;;;5.35;3.15;;;;;;;;;;5069964;28;20021;-76
2023/05/27 06:36:09;;;;;;;3.80;2.85;;;;;;;;;;5071426;28;20016;-76
2023/05/27 06:38:36;;;;;;;5.05;3.28;;;;;;;;;;5077666;28;20028;-77
2023/05/27 06:41:02;;;;;;;5.38;2.95;;;;;;;;;;5073808;28;20035;-76
2023/05/27 06:43:28;;;;;;;7.30;3.42;;;;;;;;;;5067911;28;20087;-76
2023/05/27 06:45:54;;;;;;;5.47;3.30;;;;;;;;;;5075430;28;20020;-75
2023/05/27 06:48:20;;;;;;;4.70;2.85;;;;;;;;;;5070115;28;20405;-76
2023/05/27 06:50:47;;;;;;;4.63;3.33;;;;;;;;;;5077119;28;20032;-76
2023/05/27 06:53:13;;;;;;;6.63;3.47;;;;;;;;;;5074669;28;20412;-76
2023/05/27 06:55:39;;;;;;;5.95;2.95;;;;;;;;;;5075478;28;20036;-78
2023/05/27 06:58:06;;;;;;;5.32;2.80;;;;;;;;;;5078137;28;20032;-76
2023/05/27 07:00:33;;;;;;;5.03;2.63;;;;;;;;;;5084637;28;20076;-77
2023/05/27 07:03:00;;;;;;;3.92;2.50;;;;;;;;;;5076176;28;20052;-76
2023/05/27 07:05:26;;;;;;;6.18;2.92;;;;;;;;;;5075760;28;20020;-76
2023/05/27 07:07:53;;;;;;;4.35;2.70;;;;;;;;;;5078652;28;20106;-77
2023/05/27 07:10:20;;;;;;;4.90;2.85;;;;;;;;;;5071957;28;20036;-76
2023/05/27 07:12:46;;;;;;;3.33;2.80;;;;;;;;;;5080697;28;20119;-76
2023/05/27 07:15:12;;;;;;;2.85;2.30;;;;;;;;;;5071690;28;20025;-76
2023/05/27 07:17:38;;;;;;;7.47;3.22;;;;;;;;;;5079666;28;20033;-76
2023/05/27 07:20:05;;;;;;;6.75;2.80;;;;;;;;;;5081343;28;20058;-76
2023/05/27 07:22:32;;;;;;;4.20;2.55;;;;;;;;;;5075233;28;20331;-77
2023/05/27 07:24:58;;;;;;;4.15;2.70;;;;;;;;;;5091440;28;20024;-76
2023/05/27 07:27:24;;;;;;;3.13;2.58;;;;;;;;;;5081156;28;20020;-78
2023/05/27 07:29:51;;;;;;;4.45;2.60;;;;;;;;;;5077424;28;20097;-76
2023/05/27 07:32:17;;;;;;;3.70;2.92;;;;;;;;;;5074604;28;20389;-77
2023/05/27 07:34:43;;;;;;;3.30;2.55;;;;;;;;;;5081702;28;20076;-77
2023/05/27 07:37:09;;;;;;;4.20;2.45;;;;;;;;;;5088389;28;20024;-77
2023/05/27 07:39:35;;;;;;;5.00;2.80;;;;;;;;;;5088542;28;20024;-79
2023/05/27 07:42:01;;;;;;;4.40;2.50;;;;;;;;;;5069648;28;20041;-78
2023/05/27 07:44:27;;;;;;;3.38;2.55;;;;;;;;;;5077089;28;20024;-76
2023/05/27 07:46:54;;;;;;;3.65;2.70;;;;;;;;;;5074177;28;20116;-78
2023/05/27 07:49:20;;;;;;;3.88;2.80;;;;;;;;;;5069154;28;20031;-78
2023/05/27 07:51:46;;;;;;;3.00;2.45;;;;;;;;;;5064969;28;20034;-76
2023/05/27 07:54:13;;;;;;;4.88;2.67;;;;;;;;;;5063314;28;20035;-76
2023/05/27 07:56:39;;;;;;;4.15;2.80;;;;;;;;;;5070056;28;20024;-77
2023/05/27 07:59:05;;;;;;;3.00;2.40;;;;;;;;;;5063198;28;20383;-80
2023/05/27 08:01:32;;;;;;;3.65;2.05;;;;;;;;;;5064449;28;20428;-76
2023/05/27 08:03:59;;;;;;;4.78;2.40;;;;;;;;;;5078285;28;20061;-76
2023/05/27 08:06:25;;;;;;;3.67;2.03;;;;;;;;;;5074130;28;20107;-77
2023/05/27 08:08:52;;;;;;;2.97;2.28;;;;;;;;;;5070821;28;20017;-77
2023/05/27 08:11:18;;;;;;;4.35;2.75;;;;;;;;;;5071215;28;20267;-77
2023/05/27 08:13:45;;;;;;;4.05;2.40;;;;;;;;;;5066507;28;20028;-75
2023/05/27 08:16:11;;;;;;;3.58;2.15;;;;;;;;;;5064279;28;20021;-78
2023/05/27 08:18:37;;;;;;;2.70;1.95;;;;;;;;;;5060826;28;20396;-76
2023/05/27 08:21:03;;;;;;;2.92;2.08;;;;;;;;;;5067420;28;20032;-77
2023/05/27 08:23:30;;;;;;;3.25;2.10;;;;;;;;;;5062935;28;20028;-76
2023/05/27 08:25:56;;;;;;;3.35;2.00;;;;;;;;;;5064765;28;20021;-77
2023/05/27 08:28:22;;;;;;;2.03;1.83;;;;;;;;;;5059375;28;20028;-76
2023/05/27 08:30:48;;;;;;;3.40;2.20;;;;;;;;;;5069102;28;20071;-77
2023/05/27 08:33:14;;;;;;;2.95;1.90;;;;;;;;;;5077921;28;20024;-77
2023/05/27 08:35:40;;;;;;;2.13;1.92;;;;;;;;;;5066590;28;20021;-76
2023/05/27 08:38:07;;;;;;;2.47;2.00;;;;;;;;;;5075616;28;20077;-78
2023/05/27 08:40:33;;;;;;;2.60;1.85;;;;;;;;;;5066145;28;20477;-76
2023/05/27 08:42:59;;;;;;;3.92;1.75;;;;;;;;;;5062975;28;20051;-76
2023/05/27 08:45:26;;;;;;;3.53;2.03;;;;;;;;;;5069339;28;20393;-78
2023/05/27 08:47:53;;;;;;;2.72;1.90;;;;;;;;;;5074298;28;20035;-77
2023/05/27 08:50:19;;;;;;;3.15;2.30;;;;;;;;;;5067611;28;20466;-78
2023/05/27 08:52:52;;;;;;;2.30;1.90;;;;;;;;;;5065238;28;20060;-78
2023/05/27 08:55:23;;;;;;;3.47;1.98;;;;;;;;;;5064485;28;20020;-77
2023/05/27 08:57:55;;;;;;;2.00;1.80;;;;;;;;;;5071409;28;20020;-77
2023/05/27 09:00:21;;;;;;;2.40;1.85;;;;;;;;;;5063668;28;20039;-77
2023/05/27 09:02:48;;;;;;;3.63;1.90;;;;;;;;;;5061151;28;20046;-77
2023/05/27 09:05:14;;;;;;;3.78;1.90;;;;;;;;;;5060862;28;20029;-77
2023/05/27 09:07:41;;;;;;;1.70;1.60;;;;;;;;;;5062442;28;20029;-77
2023/05/27 09:10:07;;;;;;;1.83;1.67;;;;;;;;;;5057875;28;20032;-78
2023/05/27 09:12:34;;;;;;;2.58;1.70;;;;;;;;;;5071064;28;20497;-78
2023/05/27 09:15:01;;;;;;;2.30;1.50;;;;;;;;;;5072311;28;20412;-78
2023/05/27 09:17:27;;;;;;;1.48;1.38;;;;;;;;;;5073314;28;20441;-77
2023/05/27 09:19:54;;;;;;;1.90;1.70;;;;;;;;;;5063010;28;20029;-77
2023/05/27 09:22:21;;;;;;;1.95;1.45;;;;;;;;;;5068478;28;20025;-76
2023/05/27 09:24:49;;;;;;;2.10;1.50;;;;;;;;;;5065617;28;20040;-77
2023/05/27 09:27:15;;;;;;;1.85;1.70;;;;;;;;;;5066098;28;20099;-77
2023/05/27 09:29:41;;;;;;;1.83;1.70;;;;;;;;;;5065869;28;20043;-77
2023/05/27 09:32:08;;;;;;;1.70;1.60;;;;;;;;;;5067031;28;20095;-77
2023/05/27 09:34:40;;;;;;;2.13;1.70;;;;;;;;;;5068446;28;20050;-76
2023/05/27 09:37:06;;;;;;;2.90;2.30;;;;;;;;;;5054892;28;20025;-75
2023/05/27 09:39:36;;;;;;;4.03;1.92;;;;;;;;;;5070669;28;20494;-76
2023/05/27 09:42:03;;;;;;;2.95;1.80;;;;;;;;;;5054509;28;20055;-78
2023/05/27 09:44:30;;;;;;;1.77;1.60;;;;;;;;;;5068078;28;20025;-77
2023/05/27 09:46:59;;;;;;;3.13;2.17;;;;;;;;;;5067704;28;20063;-77
2023/05/27 09:49:29;;;;;;;2.08;1.80;;;;;;;;;;5074574;28;20433;-79
2023/05/27 09:51:57;;;;;;;2.30;1.80;;;;;;;;;;5065065;28;20629;-76
2023/05/27 09:54:24;;;;;;;1.88;1.77;;;;;;;;;;5066843;28;20025;-79
2023/05/27 09:56:50;;;;;;;3.33;1.88;;;;;;;;;;5069847;28;20020;-76
2023/05/27 09:59:16;;;;;;;2.20;1.80;;;;;;;;;;5066355;28;20030;-77
2023/05/27 10:01:45;;;;;;;2.08;1.88;;;;;;;;;;5074851;28;20047;-78
2023/05/27 10:04:12;;;;;;;2.30;1.95;;;;;;;;;;5060034;28;20045;-78
2023/05/27 10:06:40;;;;;;;2.50;2.00;;;;;;;;;;5062073;28;20103;-79
2023/05/27 10:09:07;;;;;;;3.28;2.00;;;;;;;;;;5075262;28;20040;-77
2023/05/27 10:11:37;;;;;;;2.00;1.80;;;;;;;;;;5067784;28;20027;-76
2023/05/27 10:14:04;;;;;;;2.42;1.88;;;;;;;;;;5074896;28;20035;-78
2023/05/27 10:16:30;;;;;;;1.85;1.75;;;;;;;;;;5067106;28;20035;-77
2023/05/27 10:18:56;;;;;;;2.55;2.10;;;;;;;;;;5063333;28;20400;-77
2023/05/27 10:21:24;;;;;;;2.17;1.70;;;;;;;;;;5060909;28;20025;-76
2023/05/27 10:24:00;;;;;;;1.75;1.60;;;;;;;;;;5072813;28;20045;-76
2023/05/27 10:26:33;;;;;;;2.50;2.17;;;;;;;;;;5055153;28;20026;-77
2023/05/27 10:29:09;;;;;;;2.13;1.90;;;;;;;;;;5069535;28;20028;-78
2023/05/27 10:31:36;;;;;;;1.88;1.77;;;;;;;;;;5071183;28;20134;-78
2023/05/27 10:34:05;;;;;;;2.17;1.80;;;;;;;;;;5063110;28;20479;-76
2023/05/27 10:36:32;;;;;;;2.00;1.80;;;;;;;;;;5061481;28;20024;-77
2023/05/27 10:39:00;;;;;;;3.03;2.28;;;;;;;;;;5059302;28;20020;-76
2023/05/27 10:41:29;;;;;;;2.08;1.90;;;;;;;;;;5056997;28;20021;-77
2023/05/27 10:43:57;;;;;;;2.38;1.98;;;;;;;;;;5062421;28;20250;-77
2023/05/27 10:46:23;;;;;;;2.35;1.95;;;;;;;;;;5054134;28;20369;-77
2023/05/27 10:48:49;;;;;;;2.00;1.85;;;;;;;;;;5057727;28;20033;-76
2023/05/27 10:51:15;;;;;;;3.30;2.30;;;;;;;;;;5064206;28;20032;-76
2023/05/27 10:53:41;;;;;;;3.63;1.98;;;;;;;;;;5066961;28;20355;-76
2023/05/27 10:56:08;;;;;;;2.50;2.15;;;;;;;;;;5061913;28;20386;-76
2023/05/27 10:58:35;;;;;;;4.28;2.13;;;;;;;;;;5060837;28;20437;-76
2023/05/27 11:01:07;;;;;;;2.03;1.83;;;;;;;;;;5057100;28;20360;-76
2023/05/27 11:03:33;;;;;;;2.55;2.10;;;;;;;;;;5058347;28;20041;-77
2023/05/27 11:06:01;;;;;;;2.50;1.98;;;;;;;;;;5053093;28;20036;-76
2023/05/27 11:08:28;;;;;;;4.05;2.25;;;;;;;;;;5056802;28;20059;-78
2023/05/27 11:11:06;;;;;;;2.92;2.05;;;;;;;;;;5061273;28;20040;-79
2023/05/27 11:13:45;;;;;;;2.65;2.00;;;;;;;;;;5051739;28;20053;-77
2023/05/27 11:16:12;;;;;;;3.80;2.10;;;;;;;;;;5059342;28;20028;-77
2023/05/27 11:18:42;;;;;;;2.55;2.00;;;;;;;;;;5065212;28;20086;-78
2023/05/27 11:21:09;;;;;;;4.53;2.20;;;;;;;;;;5055598;28;20082;-78
2023/05/27 11:23:40;;;;;;;3.55;2.30;;;;;;;;;;5072595;28;20338;-78
2023/05/27 11:26:23;;;;;;;2.85;2.30;;;;;;;;;;5066132;28;20458;-78
2023/05/27 11:29:07;;;;;;;3.72;2.45;;;;;;;;;;5056796;28;20616;-77
2023/05/27 11:31:33;;;;;;;2.65;2.30;;;;;;;;;;5058212;28;20025;-78
2023/05/27 11:33:59;;;;;;;2.85;2.30;;;;;;;;;;5059147;28;20080;-78
2023/05/27 11:36:26;;;;;;;2.65;2.10;;;;;;;;;;5065717;28;20125;-77
2023/05/27 11:38:52;;;;;;;4.43;2.38;;;;;;;;;;5065291;28;20404;-80
2023/05/27 11:41:19;;;;;;;4.38;2.75;;;;;;;;;;5079764;28;20111;-78
2023/05/27 11:43:52;;;;;;;3.28;2.67;;;;;;;;;;5070354;28;20565;-81
2023/05/27 11:46:18;;;;;;;3.47;2.20;;;;;;;;;;5064117;28;20051;-78
2023/05/27 11:48:45;;;;;;;3.35;2.30;;;;;;;;;;5066143;28;20544;-79
2023/05/27 11:51:11;;;;;;;2.97;2.20;;;;;;;;;;5066791;28;20038;-76
2023/05/27 11:53:56;;;;;;;2.85;2.22;;;;;;;;;;5067863;28;20064;-78
2023/05/27 11:56:22;;;;;;;3.45;2.30;;;;;;;;;;5070717;28;20067;-78
2023/05/27 11:58:48;;;;;;;2.97;2.00;;;;;;;;;;5054140;28;20024;-78
2023/05/27 12:01:15;;;;;;;3.22;2.30;;;;;;;;;;5059992;28;20029;-81
2023/05/27 12:03:41;;;;;;;3.35;2.42;;;;;;;;;;5054364;28;20037;-76
2023/05/27 12:06:07;;;;;;;2.90;2.28;;;;;;;;;;5058564;28;20132;-76
2023/05/27 12:08:33;;;;;;;3.05;2.40;;;;;;;;;;5047567;28;20037;-76
2023/05/27 12:10:59;;;;;;;3.53;2.50;;;;;;;;;;5063016;28;20444;-77
2023/05/27 12:13:26;;;;;;;2.90;2.55;;;;;;;;;;5063309;28;20028;-77
2023/05/27 12:15:52;;;;;;;3.20;2.25;;;;;;;;;;5060266;28;20056;-77
2023/05/27 12:18:18;;;;;;;2.67;2.40;;;;;;;;;;5058337;28;20035;-80
2023/05/27 12:20:44;;;;;;;2.90;2.30;;;;;;;;;;5066288;28;20032;-76
2023/05/27 12:23:10;;;;;;;2.88;2.45;;;;;;;;;;5065107;28;20032;-76
2023/05/27 12:25:37;;;;;;;2.97;2.50;;;;;;;;;;5063050;28;20316;-77
2023/05/27 12:28:03;;;;;;;4.72;2.50;;;;;;;;;;5056240;28;20040;-77
2023/05/27 12:30:29;;;;;;;3.78;2.60;;;;;;;;;;5058524;28;20084;-78
2023/05/27 12:32:55;;;;;;;2.85;2.35;;;;;;;;;;5064136;28;20028;-77
2023/05/27 12:35:22;;;;;;;3.00;2.05;;;;;;;;;;5053068;28;20045;-76
2023/05/27 12:37:48;;;;;;;3.97;2.55;;;;;;;;;;5061359;28;20577;-77
2023/05/27 12:40:14;;;;;;;4.72;2.50;;;;;;;;;;5058922;28;20387;-77
2023/05/27 12:42:43;;;;;;;3.20;2.33;;;;;;;;;;5062460;28;20452;-76
2023/05/27 12:45:10;;;;;;;2.65;2.13;;;;;;;;;;5061201;28;20031;-77
2023/05/27 12:47:37;;;;;;;2.30;2.10;;;;;;;;;;5067809;28;20103;-76
2023/05/27 12:50:05;;;;;;;2.53;2.17;;;;;;;;;;5062673;28;20029;-75
2023/05/27 12:52:32;;;;;;;3.08;2.20;;;;;;;;;;5058840;28;20552;-76
2023/05/27 12:54:58;;;;;;;2.72;2.10;;;;;;;;;;5062893;28;20036;-77
2023/05/27 12:57:25;;;;;;;3.22;2.30;;;;;;;;;;5060334;28;20112;-76
2023/05/27 12:59:51;;;;;;;2.55;2.25;;;;;;;;;;5060221;28;20518;-77
2023/05/27 13:02:17;;;;;;;3.40;2.30;;;;;;;;;;5057968;28;20039;-78
2023/05/27 13:04:44;;;;;;;2.95;2.28;;;;;;;;;;5061960;28;20029;-77
2023/05/27 13:07:13;;;;;;;3.10;2.35;;;;;;;;;;5064623;28;20036;-77
2023/05/27 13:09:42;;;;;;;3.45;2.50;;;;;;;;;;5061891;28;20446;-76
2023/05/27 13:12:09;;;;;;;2.78;2.40;;;;;;;;;;5060792;28;20056;-76
2023/05/27 13:14:35;;;;;;;2.70;2.30;;;;;;;;;;5056799;28;20439;-77
2023/05/27 13:17:01;;;;;;;2.67;2.30;;;;;;;;;;5053765;28;20035;-76
2023/05/27 13:19:27;;;;;;;5.10;2.63;;;;;;;;;;5053650;28;20035;-78
2023/05/27 13:21:53;;;;;;;3.55;2.55;;;;;;;;;;5055514;28;20509;-77
2023/05/27 13:24:20;;;;;;;3.17;2.45;;;;;;;;;;5059213;28;20029;-76
2023/05/27 13:26:46;;;;;;;4.38;2.40;;;;;;;;;;5062059;28;20028;-77
2023/05/27 13:29:12;;;;;;;2.83;2.20;;;;;;;;;;5052216;28;20053;-75
2023/05/27 13:31:38;;;;;;;4.55;2.70;;;;;;;;;;5054802;28;20090;-77
2023/05/27 13:34:04;;;;;;;2.83;2.53;;;;;;;;;;5055755;28;20052;-76
2023/05/27 13:36:30;;;;;;;3.60;2.40;;;;;;;;;;5061133;28;20024;-77
2023/05/27 13:38:56;;;;;;;2.67;2.28;;;;;;;;;;5062007;28;20130;-76
2023/05/27 13:41:22;;;;;;;3.63;2.40;;;;;;;;;;5063900;28;20104;-76
2023/05/27 13:43:49;;;;;;;2.90;2.58;;;;;;;;;;5055297;28;20095;-76
2023/05/27 13:46:15;;;;;;;3.00;2.47;;;;;;;;;;5057985;28;20107;-77
2023/05/27 13:48:41;;;;;;;4.25;2.45;;;;;;;;;;5057380;28;20033;-76
2023/05/27 13:51:07;;;;;;;3.38;2.63;;;;;;;;;;5056775;28;20487;-77
2023/05/27 13:53:34;;;;;;;3.40;2.40;;;;;;;;;;5055561;28;20092;-76
2023/05/27 13:56:00;;;;;;;3.80;2.15;;;;;;;;;;5065378;28;20024;-77
2023/05/27 13:58:26;;;;;;;2.63;2.17;;;;;;;;;;5059916;28;20021;-77
2023/05/27 14:00:52;;;;;;;2.60;2.40;;;;;;;;;;5060792;28;20290;-76
2023/05/27 14:03:18;;;;;;;3.72;2.47;;;;;;;;;;5055474;28;20029;-77
2023/05/27 14:05:44;;;;;;;3.55;2.90;;;;;;;;;;5049810;28;20025;-77
2023/05/27 14:08:10;;;;;;;3.22;2.80;;;;;;;;;;5058548;28;20048;-76
2023/05/27 14:10:36;;;;;;;3.00;2.38;;;;;;;;;;5054512;28;20028;-77
2023/05/27 14:13:04;;;;;;;4.93;2.47;;;;;;;;;;5058273;28;20028;-77
2023/05/27 14:15:31;;;;;;;3.25;2.28;;;;;;;;;;5056698;28;20020;-77
2023/05/27 14:18:00;;;;;;;2.83;2.53;;;;;;;;;;5056029;28;20039;-77
2023/05/27 14:20:26;;;;;;;2.90;2.45;;;;;;;;;;5056021;28;20032;-77
2023/05/27 14:22:53;;;;;;;2.83;2.30;;;;;;;;;;5058476;28;21561;-77
2023/05/27 14:25:20;;;;;;;3.08;2.13;;;;;;;;;;5047693;28;20043;-77
2023/05/27 14:27:46;;;;;;;3.30;2.10;;;;;;;;;;5054511;28;20059;-75
2023/05/27 14:30:12;;;;;;;3.28;2.20;;;;;;;;;;5051830;28;20486;-76
2023/05/27 14:32:38;;;;;;;4.68;2.40;;;;;;;;;;5058186;28;20043;-76
2023/05/27 14:35:05;;;;;;;2.80;2.47;;;;;;;;;;5062663;28;20532;-75
2023/05/27 14:37:31;;;;;;;3.85;2.20;;;;;;;;;;5077888;28;20386;-75
2023/05/27 14:39:57;;;;;;;2.55;2.30;;;;;;;;;;5063282;28;20504;-75
2023/05/27 14:42:23;;;;;;;2.92;2.28;;;;;;;;;;5064881;28;20134;-77